Time;durP1;ratioP1;P1;durP2;ratioP2;P2;SDS_P1;SDS_P2;PMS_P1;PMS_P2;Temp;Humidity;BMP_temperature;BMP_pressure;BME280_temperature;BME280_humidity;BME280_pressure;Samples;Min_cycle;Max_cycle;Signal;HPM_P1;HPM_P2
2022/09/10 00:01:30;;;;;;;1.70;0.80;;;;;;;21.94;100.00;95361.56;5113026;28;20423;-57
2022/09/10 00:04:01;;;;;;;0.60;0.30;;;;;;;21.88;100.00;95365.63;5113276;28;20435;-57
2022/09/10 00:06:34;;;;;;;0.83;0.70;;;;;;;21.84;100.00;95370.09;5112900;28;20463;-57
2022/09/10 00:09:02;;;;;;;0.50;0.40;;;;;;;21.81;100.00;95373.47;5112353;28;20420;-57
2022/09/10 00:11:31;;;;;;;0.50;0.40;;;;;;;21.32;100.00;95291.78;5113128;28;20947;-57
2022/09/10 00:14:01;;;;;;;0.60;0.50;;;;;;;21.78;100.00;95360.66;5112937;28;20457;-57
2022/09/10 00:16:30;;;;;;;0.53;0.40;;;;;;;21.32;100.00;95368.06;5113031;28;20784;-57
2022/09/10 00:19:01;;;;;;;0.50;0.40;;;;;;;21.56;100.00;95369.19;5112928;28;20432;-57
2022/09/10 00:21:30;;;;;;;0.40;0.30;;;;;;;21.63;100.00;95356.72;5112973;28;20768;-58
2022/09/10 00:23:58;;;;;;;0.60;0.30;;;;;;;21.78;100.00;95368.75;5112626;27;20975;-57
2022/09/10 00:26:29;;;;;;;0.60;0.50;;;;;;;21.74;100.00;95367.84;5112522;28;20475;-57
2022/09/10 00:28:59;;;;;;;0.50;0.30;;;;;;;21.78;100.00;95361.44;5112546;28;20431;-57
2022/09/10 00:31:28;;;;;;;1.53;0.53;;;;;;;21.35;100.00;95361.22;5112802;28;20432;-57
2022/09/10 00:33:58;;;;;;;0.40;0.30;;;;;;;21.37;100.00;95367.84;5112727;28;20943;-58
2022/09/10 00:36:31;;;;;;;1.00;0.93;;;;;;;21.53;100.00;95363.34;5112718;28;20431;-57
2022/09/10 00:39:02;;;;;;;1.43;0.60;;;;;;;21.64;100.00;95368.31;5112761;28;20436;-58
2022/09/10 00:41:31;;;;;;;0.50;0.30;;;;;;;21.53;100.00;95343.69;5112587;28;20427;-58
2022/09/10 00:44:01;;;;;;;0.90;0.90;;;;;;;21.67;100.00;95370.31;5112375;28;20897;-58
2022/09/10 00:46:35;;;;;;;0.50;0.40;;;;;;;21.69;100.00;95376.97;5112409;28;20536;-58
2022/09/10 00:49:14;;;;;;;0.50;0.30;;;;;;;21.70;100.00;95372.34;5112554;28;20495;-58
2022/09/10 00:51:45;;;;;;;0.47;0.37;;;;;;;21.68;100.00;95369.22;5112179;28;20442;-58
2022/09/10 00:54:16;;;;;;;1.43;0.47;;;;;;;21.29;100.00;95347.19;5112493;28;20428;-58
2022/09/10 00:56:45;;;;;;;0.47;0.30;;;;;;;21.51;100.00;95384.50;5111854;28;21022;-56
2022/09/10 00:59:17;;;;;;;0.50;0.30;;;;;;;21.48;100.00;95384.34;5112053;28;20439;-56
2022/09/10 01:01:48;;;;;;;1.60;0.63;;;;;;;21.52;100.00;95372.59;5112393;28;20799;-56
2022/09/10 01:04:16;;;;;;;0.40;0.30;;;;;;;21.50;100.00;95377.50;5112318;28;20435;-56
2022/09/10 01:06:46;;;;;;;0.50;0.30;;;;;;;21.51;100.00;95370.22;5111963;28;20459;-56
2022/09/10 01:09:15;;;;;;;3.80;0.73;;;;;;;21.50;100.00;95372.09;5112299;28;20845;-57
2022/09/10 01:11:57;;;;;;;0.50;0.30;;;;;;;21.63;100.00;95374.84;5111956;28;20424;-57
2022/09/10 01:14:54;;;;;;;0.50;0.40;;;;;;;21.28;100.00;95374.44;5111906;28;20434;-57
2022/09/10 01:17:31;;;;;;;0.50;0.30;;;;;;;21.38;100.00;95384.78;5111945;28;20431;-57
2022/09/10 01:20:32;;;;;;;0.40;0.30;;;;;;;21.16;100.00;95380.63;5113801;28;20449;-56
2022/09/10 01:23:25;;;;;;;0.77;0.47;;;;;;;21.35;100.00;95372.78;5099082;28;20443;-57
2022/09/10 01:26:03;;;;;;;0.50;0.30;;;;;;;21.33;100.00;95369.63;5116117;27;20431;-57
2022/09/10 01:28:39;;;;;;;0.60;0.40;;;;;;;20.83;100.00;95291.72;5115948;28;20438;-57
2022/09/10 01:31:11;;;;;;;1.17;0.50;;;;;;;21.32;100.00;95370.78;5116177;28;20423;-57
2022/09/10 01:33:47;;;;;;;0.40;0.30;;;;;;;21.35;100.00;95370.06;5116142;28;20415;-56
2022/09/10 01:36:20;;;;;;;0.60;0.53;;;;;;;21.35;100.00;95367.38;5115828;28;20431;-57
2022/09/10 01:38:50;;;;;;;0.60;0.47;;;;;;;21.29;100.00;95343.69;5116101;28;20595;-57
2022/09/10 01:41:22;;;;;;;0.57;0.57;;;;;;;21.37;100.00;95353.59;5115955;28;20917;-57
2022/09/10 01:43:52;;;;;;;0.50;0.47;;;;;;;21.36;100.00;95354.69;5115939;28;20424;-57
2022/09/10 01:46:29;;;;;;;0.50;0.30;;;;;;;21.34;100.00;95351.56;5115422;28;20450;-58
2022/09/10 01:49:17;;;;;;;0.50;0.30;;;;;;;21.32;100.00;95346.50;5115865;28;20423;-57
2022/09/10 01:52:03;;;;;;;1.50;0.30;;;;;;;21.30;100.00;95329.84;5115881;28;20430;-57
2022/09/10 01:54:44;;;;;;;0.63;0.50;;;;;;;21.19;100.00;95341.44;5115542;28;20431;-57
2022/09/10 01:57:23;;;;;;;0.83;0.70;;;;;;;21.09;100.00;95334.56;5115174;28;20466;-56
2022/09/10 02:00:01;;;;;;;0.50;0.40;;;;;;;21.21;100.00;95326.50;5115414;28;20427;-57
2022/09/10 02:02:35;;;;;;;0.50;0.50;;;;;;;20.52;100.00;95334.50;5115635;28;20438;-57
2022/09/10 02:05:06;;;;;;;3.83;0.83;;;;;;;20.06;100.00;95322.03;5115336;27;20415;-57
2022/09/10 02:07:36;;;;;;;0.60;0.60;;;;;;;20.01;100.00;95316.84;5115127;28;20467;-57
2022/09/10 02:10:08;;;;;;;0.70;0.70;;;;;;;19.96;100.00;95306.28;5115231;28;20435;-57
2022/09/10 02:12:38;;;;;;;0.90;0.90;;;;;;;19.96;100.00;95337.81;5115091;28;20939;-57
2022/09/10 02:15:10;;;;;;;0.60;0.40;;;;;;;19.81;100.00;95341.06;5115074;28;20416;-57
2022/09/10 02:17:40;;;;;;;0.60;0.60;;;;;;;19.69;100.00;95343.66;5114645;28;20436;-57
2022/09/10 02:20:13;;;;;;;0.80;0.80;;;;;;;19.86;100.00;95346.25;5115036;28;20848;-57
2022/09/10 02:22:48;;;;;;;0.60;0.40;;;;;;;19.16;100.00;95159.59;5114944;28;20434;-57
2022/09/10 02:25:17;;;;;;;0.47;0.30;;;;;;;20.22;100.00;95351.84;5115132;28;20419;-57
2022/09/10 02:27:45;;;;;;;0.50;0.40;;;;;;;20.15;100.00;95351.56;5114135;28;20841;-57
2022/09/10 02:30:15;;;;;;;0.50;0.40;;;;;;;20.58;100.00;95364.69;5114796;28;20419;-57
2022/09/10 02:32:44;;;;;;;0.80;0.73;;;;;;;20.35;100.00;95358.88;5113745;28;20426;-57
2022/09/10 02:35:14;;;;;;;0.93;0.83;;;;;;;19.89;100.00;95369.78;5114373;28;20416;-57
2022/09/10 02:37:43;;;;;;;15.87;0.70;;;;;;;19.77;100.00;95369.72;5114635;28;20447;-57
2022/09/10 02:40:12;;;;;;;1.00;1.00;;;;;;;20.09;100.00;95375.19;5114618;28;20791;-57
2022/09/10 02:42:45;;;;;;;0.40;0.30;;;;;;;20.37;100.00;95370.09;5114232;28;20463;-58
2022/09/10 02:45:15;;;;;;;0.43;0.37;;;;;;;20.60;100.00;95386.69;5114206;28;20423;-57
2022/09/10 02:47:43;;;;;;;0.40;0.30;;;;;;;20.44;100.00;95364.97;5114138;28;20991;-58
2022/09/10 02:50:12;;;;;;;0.40;0.30;;;;;;;20.48;100.00;95363.22;5114300;28;20426;-57
2022/09/10 02:52:40;;;;;;;0.53;0.30;;;;;;;20.55;100.00;95365.34;5114075;28;20990;-58
2022/09/10 02:55:09;;;;;;;0.40;0.30;;;;;;;20.53;100.00;95357.63;5114421;28;20423;-58
2022/09/10 02:57:38;;;;;;;0.40;0.33;;;;;;;20.57;100.00;95355.84;5114039;28;20471;-58
2022/09/10 03:00:08;;;;;;;0.93;0.83;;;;;;;20.63;100.00;95359.13;5113893;28;20431;-57
2022/09/10 03:02:39;;;;;;;0.53;0.40;;;;;;;20.57;100.00;95358.53;5114197;28;20435;-58
2022/09/10 03:05:08;;;;;;;1.07;1.00;;;;;;;20.39;100.00;95350.94;5113827;28;20514;-57
2022/09/10 03:07:37;;;;;;;0.70;0.67;;;;;;;19.68;100.00;95363.59;5113945;28;20548;-57
2022/09/10 03:10:06;;;;;;;1.10;1.00;;;;;;;19.60;100.00;95367.91;5113748;28;20432;-58
2022/09/10 03:12:35;;;;;;;0.60;0.50;;;;;;;19.97;100.00;95360.88;5114048;28;20951;-58
2022/09/10 03:15:03;;;;;;;5.93;1.37;;;;;;;20.08;100.00;95356.69;5113696;28;20439;-58
2022/09/10 03:17:32;;;;;;;0.40;0.30;;;;;;;20.18;100.00;95350.94;5113623;28;20462;-57
2022/09/10 03:20:02;;;;;;;0.70;0.40;;;;;;;20.04;100.00;95353.88;5113870;28;20908;-57
2022/09/10 03:22:30;;;;;;;0.80;0.60;;;;;;;20.21;100.00;95340.28;5113535;28;20439;-57
2022/09/10 03:24:59;;;;;;;0.60;0.40;;;;;;;19.36;100.00;95195.66;5113801;28;20431;-57
2022/09/10 03:27:27;;;;;;;0.40;0.40;;;;;;;20.21;100.00;95334.13;5113358;28;21002;-58
2022/09/10 03:29:55;;;;;;;0.53;0.47;;;;;;;20.33;100.00;95339.59;5113759;28;20430;-57
2022/09/10 03:32:24;;;;;;;0.50;0.30;;;;;;;20.36;100.00;95343.53;5113599;28;20431;-58
2022/09/10 03:34:52;;;;;;;0.60;0.60;;;;;;;20.58;100.00;95340.47;5113316;28;20435;-58
2022/09/10 03:37:23;;;;;;;0.47;0.30;;;;;;;20.12;100.00;95276.88;5113181;28;20428;-57
2022/09/10 03:39:51;;;;;;;0.57;0.40;;;;;;;20.54;100.00;95329.56;5113259;28;20430;-58
2022/09/10 03:42:19;;;;;;;0.50;0.30;;;;;;;20.54;100.00;95331.50;5113013;28;20463;-58
2022/09/10 03:44:48;;;;;;;0.70;0.70;;;;;;;20.61;100.00;95337.13;5112988;28;20481;-57
2022/09/10 03:47:17;;;;;;;0.60;0.60;;;;;;;20.68;100.00;95345.44;5113261;28;20439;-58
2022/09/10 03:49:45;;;;;;;0.77;0.30;;;;;;;20.78;100.00;95337.72;5112957;28;20420;-58
2022/09/10 03:52:13;;;;;;;1.13;0.70;;;;;;;20.41;100.00;95333.34;5112908;28;20817;-58
2022/09/10 03:54:44;;;;;;;0.40;0.40;;;;;;;20.55;100.00;95333.84;5112871;27;20420;-58
2022/09/10 03:57:12;;;;;;;0.43;0.27;;;;;;;20.40;100.00;95330.97;5112601;28;20513;-58
2022/09/10 03:59:41;;;;;;;0.43;0.30;;;;;;;20.57;100.00;95334.28;5112844;27;20420;-58
2022/09/10 04:02:09;;;;;;;0.50;0.40;;;;;;;20.67;100.00;95333.09;5112658;28;20925;-58
2022/09/10 04:04:37;;;;;;;0.50;0.50;;;;;;;20.71;100.00;95334.00;5112647;28;20926;-58
2022/09/10 04:07:06;;;;;;;0.40;0.30;;;;;;;20.62;100.00;95335.97;5112813;28;20835;-58
2022/09/10 04:09:35;;;;;;;0.50;0.50;;;;;;;20.45;100.00;95336.16;5112496;28;20467;-58
2022/09/10 04:12:05;;;;;;;0.80;0.57;;;;;;;20.24;100.00;95342.34;5112482;28;20431;-58
2022/09/10 04:14:33;;;;;;;0.50;0.30;;;;;;;20.42;100.00;95347.56;5112365;28;20805;-58
2022/09/10 04:17:02;;;;;;;0.63;0.63;;;;;;;20.57;100.00;95341.56;5112962;28;20419;-57
2022/09/10 04:19:30;;;;;;;0.70;0.60;;;;;;;20.58;100.00;95337.78;5112426;28;20435;-57
2022/09/10 04:21:58;;;;;;;0.63;0.63;;;;;;;20.64;100.00;95339.16;5112396;28;20443;-58
2022/09/10 04:24:27;;;;;;;0.50;0.50;;;;;;;20.09;100.00;95350.97;5112555;28;20512;-57
2022/09/10 04:26:56;;;;;;;0.83;0.83;;;;;;;19.60;100.00;95343.72;5112390;28;20442;-57
2022/09/10 04:29:26;;;;;;;0.60;0.60;;;;;;;19.95;100.00;95344.28;5112662;28;20980;-57
2022/09/10 04:31:55;;;;;;;0.60;0.57;;;;;;;19.69;100.00;95346.34;5112259;28;20459;-57
2022/09/10 04:34:23;;;;;;;0.77;0.77;;;;;;;19.52;100.00;95342.66;5112255;28;20427;-57
2022/09/10 04:36:52;;;;;;;0.50;0.50;;;;;;;19.03;100.00;95336.03;5112545;28;20439;-57
2022/09/10 04:39:20;;;;;;;0.53;0.47;;;;;;;19.09;100.00;95341.22;5112184;28;20427;-58
2022/09/10 04:41:49;;;;;;;2.07;0.60;;;;;;;19.55;100.00;95333.16;5112172;28;20423;-58
2022/09/10 04:44:18;;;;;;;1.03;0.80;;;;;;;19.44;100.00;95331.94;5112195;28;20420;-58
2022/09/10 04:46:48;;;;;;;0.80;0.80;;;;;;;19.64;100.00;95321.22;5112489;28;20416;-57
2022/09/10 04:49:17;;;;;;;0.40;0.30;;;;;;;20.19;100.00;95320.19;5111971;28;20478;-58
2022/09/10 04:51:45;;;;;;;0.47;0.33;;;;;;;20.55;100.00;95324.97;5112229;28;20424;-56
2022/09/10 04:54:14;;;;;;;0.50;0.30;;;;;;;20.27;100.00;95335.50;5111600;28;20436;-56
2022/09/10 04:56:43;;;;;;;0.50;0.43;;;;;;;19.89;100.00;95326.75;5111928;28;20474;-56
2022/09/10 04:59:11;;;;;;;0.70;0.40;;;;;;;20.33;100.00;95330.72;5112027;28;20795;-55
2022/09/10 05:01:40;;;;;;;0.40;0.40;;;;;;;20.39;100.00;95334.78;5112010;28;20417;-56
2022/09/10 05:04:09;;;;;;;0.60;0.50;;;;;;;20.38;100.00;95327.81;5111974;28;20429;-56
2022/09/10 05:06:38;;;;;;;0.97;0.70;;;;;;;20.15;100.00;95333.53;5112221;28;20844;-56
2022/09/10 05:09:06;;;;;;;0.40;0.33;;;;;;;20.07;100.00;95339.75;5111722;28;20467;-65
2022/09/10 05:11:35;;;;;;;0.60;0.60;;;;;;;20.62;100.00;95344.06;5111755;28;20916;-65
2022/09/10 05:14:04;;;;;;;0.50;0.30;;;;;;;21.16;100.00;95328.63;5111608;28;20804;-65
2022/09/10 05:16:32;;;;;;;0.50;0.40;;;;;;;21.44;100.00;95341.13;5112437;28;20415;-64
2022/09/10 05:19:00;;;;;;;0.40;0.30;;;;;;;21.67;100.00;95338.75;5112004;28;20431;-64
2022/09/10 05:21:30;;;;;;;0.60;0.43;;;;;;;21.68;100.00;95331.44;5111678;28;20522;-65
2022/09/10 05:23:59;;;;;;;0.80;0.80;;;;;;;21.55;100.00;95338.75;5112015;28;20427;-65
2022/09/10 05:26:30;;;;;;;0.70;0.53;;;;;;;21.81;100.00;95333.78;5112014;28;20411;-66
2022/09/10 05:28:59;;;;;;;0.40;0.40;;;;;;;21.90;100.00;95331.78;5112540;28;20506;-67
2022/09/10 05:31:27;;;;;;;0.90;0.53;;;;;;;21.50;100.00;95323.56;5113238;28;20436;-67
2022/09/10 05:33:58;;;;;;;0.80;0.80;;;;;;;21.92;100.00;95326.03;5115358;28;20436;-71
2022/09/10 05:36:26;;;;;;;0.80;0.70;;;;;;;21.89;100.00;95332.91;5118328;28;20422;-69
2022/09/10 05:38:59;;;;;;;0.60;0.43;;;;;;;22.27;100.00;95324.38;5119774;28;20440;-72
2022/09/10 05:41:29;;;;;;;0.60;0.60;;;;;;;22.12;100.00;95298.09;5115038;28;20439;-69
2022/09/10 05:43:58;;;;;;;0.50;0.50;;;;;;;22.51;100.00;95318.09;5111524;28;20485;-69
2022/09/10 05:46:28;;;;;;;0.60;0.60;;;;;;;22.13;100.00;95264.59;5111549;28;20422;-69
2022/09/10 05:48:57;;;;;;;0.50;0.30;;;;;;;22.76;100.00;95322.28;5111431;28;21006;-68
2022/09/10 05:51:28;;;;;;;1.00;0.90;;;;;;;22.80;100.00;95327.75;5111663;28;20423;-66
2022/09/10 05:53:59;;;;;;;1.10;1.03;;;;;;;22.51;100.00;95316.19;5111716;28;20424;-65
2022/09/10 05:56:27;;;;;;;0.83;0.80;;;;;;;23.06;100.00;95319.97;5111344;28;20463;-65
2022/09/10 05:58:55;;;;;;;0.70;0.70;;;;;;;23.26;100.00;95308.91;5111574;28;20435;-65
2022/09/10 06:01:23;;;;;;;0.70;0.53;;;;;;;23.69;100.00;95321.53;5111910;28;20427;-64
2022/09/10 06:03:52;;;;;;;1.23;0.70;;;;;;;23.41;100.00;95261.34;5111257;28;20439;-70
2022/09/10 06:06:20;;;;;;;1.03;1.03;;;;;;;23.51;100.00;95263.53;5112023;28;20419;-70
2022/09/10 06:08:52;;;;;;;0.50;0.50;;;;;;;23.80;100.00;95306.34;5114925;28;20466;-71
2022/09/10 06:11:22;;;;;;;1.67;0.93;;;;;;;22.97;100.00;95305.84;5115421;28;20438;-70
2022/09/10 06:13:51;;;;;;;2.07;1.97;;;;;;;22.54;100.00;95256.03;5114996;28;20426;-71
2022/09/10 06:16:19;;;;;;;1.53;0.77;;;;;;;22.77;100.00;95271.72;5115038;28;20415;-71
2022/09/10 06:18:47;;;;;;;0.90;0.90;;;;;;;23.38;100.00;95300.72;5115144;28;20474;-70
2022/09/10 06:21:17;;;;;;;1.90;1.80;;;;;;;23.05;100.00;95296.75;5114952;28;20423;-71
2022/09/10 06:23:46;;;;;;;1.77;1.33;;;;;;;23.22;100.00;95282.91;5115054;28;20458;-70
2022/09/10 06:26:17;;;;;;;1.00;0.97;;;;;;;23.49;100.00;95292.84;5115070;28;20523;-70
2022/09/10 06:28:47;;;;;;;0.90;0.83;;;;;;;23.89;100.00;95285.25;5114914;28;20424;-71
2022/09/10 06:31:18;;;;;;;1.10;1.03;;;;;;;24.41;100.00;95289.44;5114543;28;20438;-71
2022/09/10 06:33:47;;;;;;;2.00;1.90;;;;;;;24.49;100.00;95291.13;5114605;28;20424;-70
2022/09/10 06:36:16;;;;;;;23.83;1.30;;;;;;;24.55;100.00;95281.56;5114539;28;20435;-71
2022/09/10 06:38:44;;;;;;;4.67;1.30;;;;;;;24.47;100.00;95285.28;5114451;28;20424;-66
2022/09/10 06:41:14;;;;;;;0.80;0.77;;;;;;;23.76;100.00;95218.84;5114611;28;20424;-69
2022/09/10 06:43:43;;;;;;;1.37;1.13;;;;;;;24.20;100.00;95294.44;5114516;28;20423;-67
2022/09/10 06:46:16;;;;;;;1.70;0.93;;;;;;;24.23;100.00;95267.44;5114256;28;20407;-65
2022/09/10 06:49:04;;;;;;;0.60;0.60;;;;;;;24.43;100.00;95287.16;5113918;28;20535;-59
2022/09/10 06:51:33;;;;;;;1.33;1.23;;;;;;;24.21;100.00;95261.56;5114060;28;20905;-58
2022/09/10 06:54:01;;;;;;;0.60;0.60;;;;;;;24.26;100.00;95272.09;5114205;28;20423;-59
2022/09/10 06:56:30;;;;;;;0.90;0.90;;;;;;;24.10;100.00;95270.63;5114092;28;20467;-58
2022/09/10 06:58:58;;;;;;;3.47;1.23;;;;;;;23.18;100.00;95263.88;5114323;27;20802;-59
2022/09/10 07:01:31;;;;;;;1.87;1.77;;;;;;;23.52;100.00;95259.69;5114026;28;20423;-59
2022/09/10 07:04:01;;;;;;;3.37;2.00;;;;;;;23.20;100.00;95263.53;5113889;28;20424;-59
2022/09/10 07:06:33;;;;;;;1.63;0.80;;;;;;;23.90;100.00;95276.00;5113980;28;20924;-59
2022/09/10 07:09:02;;;;;;;3.60;2.50;;;;;;;24.13;100.00;95284.25;5113813;28;20424;-60
2022/09/10 07:11:31;;;;;;;1.83;1.53;;;;;;;23.81;100.00;95291.66;5113738;28;20427;-58
2022/09/10 07:14:00;;;;;;;1.23;1.13;;;;;;;23.99;100.00;95292.81;5113744;28;20428;-59
2022/09/10 07:16:30;;;;;;;1.43;1.00;;;;;;;24.27;100.00;95297.28;5113527;28;20506;-58
2022/09/10 07:19:00;;;;;;;0.57;0.57;;;;;;;24.30;100.00;95305.47;5113619;28;20475;-58
2022/09/10 07:21:29;;;;;;;2.00;1.23;;;;;;;24.59;100.00;95306.84;5113633;28;20430;-58
2022/09/10 07:24:00;;;;;;;0.70;0.70;;;;;;;24.62;100.00;95325.84;5113869;28;20431;-58
2022/09/10 07:26:29;;;;;;;1.13;1.03;;;;;;;24.51;100.00;95345.78;5113343;28;20423;-58
2022/09/10 07:28:58;;;;;;;0.67;0.60;;;;;;;24.75;100.00;95337.34;5113593;28;20439;-57
2022/09/10 07:31:28;;;;;;;1.20;0.60;;;;;;;25.01;100.00;95332.06;5113567;28;20480;-58
2022/09/10 07:33:59;;;;;;;0.60;0.60;;;;;;;24.93;100.00;95332.28;5113300;28;20440;-57
2022/09/10 07:36:28;;;;;;;3.97;1.00;;;;;;;24.71;100.00;95338.41;5113244;28;20420;-57
2022/09/10 07:39:00;;;;;;;0.90;0.63;;;;;;;24.79;100.00;95326.59;5113078;28;20440;-58
2022/09/10 07:41:30;;;;;;;0.77;0.77;;;;;;;24.92;100.00;95339.63;5113557;28;20512;-58
2022/09/10 07:43:59;;;;;;;0.50;0.37;;;;;;;24.72;100.00;95334.56;5113206;28;20424;-58
2022/09/10 07:46:27;;;;;;;3.23;2.93;;;;;;;24.68;100.00;95345.34;5112996;27;20438;-57
2022/09/10 07:48:57;;;;;;;1.33;1.23;;;;;;;24.50;100.00;95296.22;5113289;28;20431;-57
2022/09/10 07:51:29;;;;;;;0.60;0.60;;;;;;;25.35;100.00;95280.69;5112979;28;20479;-57
2022/09/10 07:53:59;;;;;;;0.80;0.50;;;;;;;27.04;100.00;95331.91;5113478;28;20432;-56
2022/09/10 07:56:30;;;;;;;1.43;0.60;;;;;;;27.95;100.00;95328.38;5112991;28;20838;-58
2022/09/10 07:59:01;;;;;;;0.70;0.70;;;;;;;28.59;88.47;95322.13;5113248;28;20939;-58
2022/09/10 08:01:30;;;;;;;0.60;0.53;;;;;;;29.57;82.35;95315.38;5113066;28;20430;-58
2022/09/10 08:03:59;;;;;;;0.97;0.97;;;;;;;29.61;77.94;95286.09;5113373;28;20474;-58
2022/09/10 08:06:31;;;;;;;4.97;1.87;;;;;;;30.10;71.71;95310.66;5113318;28;20437;-58
2022/09/10 08:09:00;;;;;;;3.70;1.23;;;;;;;30.12;70.22;95307.50;5113341;28;20438;-59
2022/09/10 08:11:28;;;;;;;1.00;0.90;;;;;;;30.47;69.05;95298.44;5112852;28;20593;-59
2022/09/10 08:13:56;;;;;;;3.10;1.70;;;;;;;30.51;68.80;95302.72;5113268;28;20798;-59
2022/09/10 08:16:25;;;;;;;2.97;1.40;;;;;;;29.03;79.65;95305.53;5113233;28;20438;-59
2022/09/10 08:18:55;;;;;;;3.97;1.00;;;;;;;29.51;76.38;95297.78;5113103;28;20439;-59
2022/09/10 08:21:24;;;;;;;3.03;1.87;;;;;;;29.76;73.52;95301.28;5112872;28;20448;-59
2022/09/10 08:23:55;;;;;;;1.00;1.00;;;;;;;30.36;68.83;95303.19;5112815;28;20432;-58
2022/09/10 08:26:24;;;;;;;0.93;0.93;;;;;;;31.17;67.23;95297.31;5112699;28;21031;-59
2022/09/10 08:28:54;;;;;;;1.20;0.87;;;;;;;31.48;62.24;95292.81;5112483;28;20420;-58
2022/09/10 08:31:25;;;;;;;0.77;0.77;;;;;;;31.83;61.23;95282.31;5112472;28;20511;-58
2022/09/10 08:33:55;;;;;;;0.90;0.90;;;;;;;31.74;59.11;95289.47;5112564;28;20873;-57
2022/09/10 08:36:24;;;;;;;0.50;0.50;;;;;;;31.91;56.38;95285.75;5112470;28;20935;-58
2022/09/10 08:38:54;;;;;;;0.70;0.70;;;;;;;32.20;52.80;95278.84;5113158;28;20425;-57
2022/09/10 08:41:37;;;;;;;1.07;0.87;;;;;;;32.82;54.12;95283.19;5112469;28;20438;-57
2022/09/10 08:44:15;;;;;;;0.50;0.50;;;;;;;33.56;50.70;95282.94;5112442;28;20435;-58
2022/09/10 08:46:48;;;;;;;0.53;0.47;;;;;;;33.56;50.54;95266.44;5112361;28;20425;-58
2022/09/10 08:49:26;;;;;;;1.53;1.00;;;;;;;32.68;53.39;95264.19;5112318;28;20438;-58
2022/09/10 08:52:00;;;;;;;0.80;0.80;;;;;;;33.29;49.41;95251.16;5112008;28;20485;-58
2022/09/10 08:54:37;;;;;;;1.23;1.23;;;;;;;33.64;49.03;95254.13;5111953;28;20457;-58
2022/09/10 08:57:14;;;;;;;0.83;0.83;;;;;;;32.70;50.56;95248.06;5111903;28;20497;-58
2022/09/10 08:59:45;;;;;;;2.63;1.63;;;;;;;32.34;51.21;95247.72;5111758;28;20434;-57
2022/09/10 09:02:19;;;;;;;1.90;0.77;;;;;;;32.50;51.37;95245.94;5111869;28;20520;-57
2022/09/10 09:05:14;;;;;;;0.60;0.60;;;;;;;32.95;47.68;95241.03;5112120;28;20495;-57
2022/09/10 09:07:43;;;;;;;0.50;0.47;;;;;;;34.04;44.95;95237.69;5112351;28;20425;-57
2022/09/10 09:10:38;;;;;;;1.57;1.47;;;;;;;33.16;46.70;95232.50;5112159;28;20439;-57
2022/09/10 09:13:41;;;;;;;1.47;1.37;;;;;;;32.90;47.29;95232.47;5111964;28;20439;-57
2022/09/10 09:16:23;;;;;;;1.10;0.90;;;;;;;33.74;48.72;95225.66;5111727;28;20455;-57
2022/09/10 09:19:05;;;;;;;2.40;0.63;;;;;;;34.72;44.43;95219.44;5112027;28;20458;-57
2022/09/10 09:21:43;;;;;;;1.00;1.00;;;;;;;34.77;40.85;95218.13;5111830;28;20431;-58
2022/09/10 09:24:22;;;;;;;1.33;1.23;;;;;;;33.80;42.60;95212.97;5111815;28;20932;-58
2022/09/10 09:26:55;;;;;;;1.80;0.83;;;;;;;34.63;42.16;95205.47;5111891;28;20449;-56
2022/09/10 09:29:29;;;;;;;0.80;0.60;;;;;;;35.11;39.89;95204.03;5111738;28;20603;-57
2022/09/10 09:31:59;;;;;;;1.03;0.60;;;;;;;35.70;41.37;95201.75;5111553;28;20468;-57
2022/09/10 09:34:33;;;;;;;0.47;0.43;;;;;;;35.81;38.67;95168.38;5111648;28;20526;-58
2022/09/10 09:37:04;;;;;;;0.73;0.70;;;;;;;35.77;39.38;95193.31;5111382;28;20194;-57
2022/09/10 09:39:38;;;;;;;0.40;0.40;;;;;;;35.86;38.97;95185.16;5111489;28;20206;-57
2022/09/10 09:42:19;;;;;;;0.40;0.30;;;;;;;35.82;39.61;95181.75;5115237;28;20277;-57
2022/09/10 09:44:51;;;;;;;1.63;0.77;;;;;;;35.66;40.66;95181.78;5115291;27;20203;-58
2022/09/10 09:47:24;;;;;;;0.40;0.40;;;;;;;36.86;37.95;95168.06;5115401;28;20195;-58
2022/09/10 09:49:53;;;;;;;0.60;0.60;;;;;;;35.94;39.58;95167.22;5115991;28;20206;-58
2022/09/10 09:52:23;;;;;;;0.80;0.80;;;;;;;35.90;40.71;95165.78;5115483;28;20221;-58
2022/09/10 09:54:56;;;;;;;1.00;0.90;;;;;;;35.84;38.14;95145.44;5115638;28;20198;-58
2022/09/10 09:57:43;;;;;;;1.07;0.90;;;;;;;36.34;40.46;95145.59;5115005;28;20609;-58
2022/09/10 10:00:35;;;;;;;0.97;0.97;;;;;;;36.55;39.17;95152.50;5115486;28;20549;-58
2022/09/10 10:03:12;;;;;;;1.42;1.33;;;;;;;35.89;39.64;95140.16;5115064;28;20222;-58
2022/09/10 10:05:41;;;;;;;0.67;0.67;;;;;;;36.00;38.96;95134.38;5115083;28;20195;-59
2022/09/10 10:08:28;;;;;;;0.75;0.75;;;;;;;36.72;38.86;95129.84;5114937;28;20187;-59
2022/09/10 10:10:57;;;;;;;1.55;1.45;;;;;;;36.28;38.86;95128.03;5115173;28;20230;-59
2022/09/10 10:13:36;;;;;;;0.68;0.60;;;;;;;36.22;38.36;95069.06;5114989;28;20196;-59
2022/09/10 10:16:16;;;;;;;0.73;0.68;;;;;;;36.94;37.42;95116.16;5114967;28;20187;-59
2022/09/10 10:18:45;;;;;;;0.68;0.68;;;;;;;35.55;40.19;95062.72;5115180;28;20196;-57
2022/09/10 10:21:16;;;;;;;1.73;1.63;;;;;;;35.44;41.13;95111.84;5114889;28;20195;-57
2022/09/10 10:23:45;;;;;;;6.50;0.60;;;;;;;36.39;40.19;95102.84;5114737;28;20293;-57
2022/09/10 10:26:32;;;;;;;0.50;0.50;;;;;;;36.42;40.19;95090.94;5114637;28;20656;-57
2022/09/10 10:29:05;;;;;;;1.08;0.93;;;;;;;37.09;39.00;95094.38;5114565;28;20673;-57
2022/09/10 10:31:39;;;;;;;0.70;0.60;;;;;;;37.95;38.51;95099.28;5114381;28;20211;-57
2022/09/10 10:34:28;;;;;;;0.77;0.77;;;;;;;37.30;39.37;95091.66;5114904;27;20699;-57
2022/09/10 10:37:07;;;;;;;1.05;0.95;;;;;;;38.01;37.53;95089.16;5114630;28;20297;-57
2022/09/10 10:39:54;;;;;;;3.58;0.70;;;;;;;38.12;37.22;95084.00;5114477;28;20649;-58
2022/09/10 10:42:27;;;;;;;0.40;0.40;;;;;;;39.93;34.16;95078.16;5114351;28;20206;-57
2022/09/10 10:45:11;;;;;;;1.90;1.80;;;;;;;36.71;39.26;95072.31;5114446;28;20193;-57
2022/09/10 10:47:48;;;;;;;1.60;0.90;;;;;;;37.40;38.74;95076.72;5113991;28;20192;-57
2022/09/10 10:50:31;;;;;;;0.52;0.52;;;;;;;36.57;40.75;95076.28;5114288;28;20189;-57
2022/09/10 10:53:21;;;;;;;1.08;1.08;;;;;;;36.59;41.67;95056.50;5113401;28;20218;-57
2022/09/10 10:55:57;;;;;;;1.45;1.45;;;;;;;36.12;43.80;95059.13;5114191;28;20194;-58
2022/09/10 10:58:50;;;;;;;1.02;0.70;;;;;;;35.82;41.99;95056.84;5114522;28;20192;-58
2022/09/10 11:01:24;;;;;;;1.08;0.88;;;;;;;37.29;40.94;95067.97;5113970;28;20681;-58
2022/09/10 11:04:01;;;;;;;0.80;0.80;;;;;;;36.64;38.70;95045.66;5114225;28;20197;-57
2022/09/10 11:06:37;;;;;;;5.15;1.05;;;;;;;36.56;42.74;95051.88;5114266;28;20204;-58
2022/09/10 11:09:12;;;;;;;0.75;0.75;;;;;;;37.00;32.78;95048.06;5114016;28;20533;-58
2022/09/10 11:11:52;;;;;;;4.43;0.68;;;;;;;37.11;40.56;95036.66;5113654;28;20211;-58
2022/09/10 11:14:27;;;;;;;1.30;1.20;;;;;;;38.38;38.79;95037.56;5113937;28;20706;-56
2022/09/10 11:17:01;;;;;;;0.40;0.40;;;;;;;38.93;34.06;95033.72;5113662;28;20203;-57
2022/09/10 11:19:37;;;;;;;0.90;0.82;;;;;;;38.35;34.96;95033.69;5113483;28;20203;-57
2022/09/10 11:22:13;;;;;;;0.40;0.40;;;;;;;38.79;32.83;95025.25;5113552;28;20192;-58
2022/09/10 11:24:49;;;;;;;0.30;0.30;;;;;;;38.31;29.60;95021.19;5113800;28;20219;-57
2022/09/10 11:27:22;;;;;;;1.10;0.95;;;;;;;36.79;31.15;95037.69;5113870;28;20214;-56
2022/09/10 11:29:57;;;;;;;0.40;0.30;;;;;;;36.71;32.18;95030.88;5113840;28;20192;-57
2022/09/10 11:32:33;;;;;;;0.40;0.30;;;;;;;36.57;31.93;95020.28;5113803;28;20567;-57
2022/09/10 11:35:11;;;;;;;0.40;0.40;;;;;;;36.49;32.01;94999.63;5113328;28;20587;-57
2022/09/10 11:37:49;;;;;;;0.40;0.30;;;;;;;35.67;31.64;94998.59;5113539;28;20196;-55
2022/09/10 11:40:24;;;;;;;0.35;0.30;;;;;;;36.20;31.73;95005.28;5113677;28;20244;-54
2022/09/10 11:42:56;;;;;;;0.70;0.70;;;;;;;36.43;31.16;94990.34;5113152;28;20196;-54
2022/09/10 11:45:35;;;;;;;0.50;0.30;;;;;;;36.20;30.50;94983.97;5113241;28;20193;-55
2022/09/10 11:48:16;;;;;;;0.60;0.60;;;;;;;36.62;30.71;94978.28;5113074;28;20192;-54
2022/09/10 11:50:50;;;;;;;0.40;0.30;;;;;;;36.42;31.27;94977.75;5113375;28;20199;-55